createdAt,value
2018-11-10T00:00:23.054Z,0
2018-11-10T00:01:33.003Z,0
2018-11-10T00:02:42.439Z,0
2018-11-10T00:03:52.122Z,0
2018-11-10T00:05:01.834Z,0
2018-11-10T00:06:11.789Z,0
2018-11-10T00:07:21.746Z,0
2018-11-10T00:08:31.914Z,0
2018-11-10T00:09:41.603Z,0
2018-11-10T00:10:51.288Z,0
2018-11-10T00:12:00.728Z,0
2018-11-10T00:13:10.404Z,0
2018-11-10T00:14:19.827Z,0
2018-11-10T00:15:29.259Z,0
2018-11-10T00:16:39.456Z,0
2018-11-10T00:17:49.067Z,0
2018-11-10T00:18:58.776Z,0
2018-11-10T00:20:08.214Z,0
2018-11-10T00:21:17.651Z,0
2018-11-10T00:22:26.824Z,0
2018-11-10T00:23:36.537Z,0
2018-11-10T00:24:46.267Z,0
2018-11-10T00:25:56.222Z,0
2018-11-10T00:27:06.181Z,0
2018-11-10T00:28:15.883Z,0
2018-11-10T00:29:25.317Z,0
2018-11-10T00:30:35.021Z,0
2018-11-10T00:31:44.963Z,0
2018-11-10T00:32:54.919Z,0
2018-11-10T00:34:04.347Z,0
2018-11-10T00:35:14.058Z,0
2018-11-10T00:36:23.779Z,0
2018-11-10T00:37:33.740Z,0
2018-11-10T00:38:43.215Z,0
2018-11-10T00:39:52.658Z,0
2018-11-10T00:41:02.105Z,0
2018-11-10T00:42:12.057Z,0
2018-11-10T00:43:21.486Z,0
2018-11-10T00:44:31.173Z,0
2018-11-10T00:45:40.893Z,0
2018-11-10T00:46:50.324Z,0
2018-11-10T00:48:00.289Z,0
2018-11-10T00:49:09.983Z,0
2018-11-10T00:50:19.436Z,0
2018-11-10T00:51:29.115Z,0
2018-11-10T00:52:39.062Z,0
2018-11-10T00:53:48.747Z,0
2018-11-10T00:54:58.183Z,0
2018-11-10T00:56:07.857Z,0
2018-11-10T00:57:17.284Z,0
2018-11-10T00:58:26.712Z,0
2018-11-10T00:59:35.882Z,0
2018-11-10T01:00:45.828Z,0
2018-11-10T01:01:55.517Z,0
2018-11-10T01:03:05.488Z,0
2018-11-10T01:04:15.430Z,0
2018-11-10T01:05:25.358Z,0
2018-11-10T01:06:34.793Z,0
2018-11-10T01:07:44.735Z,0
2018-11-10T01:08:54.466Z,0
2018-11-10T01:10:03.953Z,0
2018-11-10T01:11:13.399Z,0
2018-11-10T01:12:23.099Z,0
2018-11-10T01:13:33.041Z,0
2018-11-10T01:14:42.972Z,0
2018-11-10T01:15:52.923Z,0
2018-11-10T01:17:02.604Z,0
2018-11-10T01:18:12.041Z,0
2018-11-10T01:19:21.997Z,0
2018-11-10T01:20:31.941Z,0
2018-11-10T01:21:41.891Z,0
2018-11-10T01:22:51.831Z,0
2018-11-10T01:24:01.540Z,0
2018-11-10T01:25:10.984Z,0
2018-11-10T01:26:20.670Z,0
2018-11-10T01:27:30.360Z,0
2018-11-10T01:28:40.328Z,0
2018-11-10T01:29:50.305Z,0
2018-11-10T01:31:00.004Z,0
2018-11-10T01:32:09.696Z,0
2018-11-10T01:33:19.134Z,0
2018-11-10T01:34:28.843Z,0
2018-11-10T01:35:38.792Z,0
2018-11-10T01:36:48.782Z,0
2018-11-10T01:37:58.730Z,0
2018-11-10T01:39:08.437Z,0
2018-11-10T01:40:17.622Z,0
2018-11-10T01:41:27.328Z,0
2018-11-10T01:42:37.008Z,0
2018-11-10T01:43:46.685Z,0
2018-11-10T01:44:56.371Z,0
2018-11-10T01:46:05.575Z,0
2018-11-10T01:47:15.255Z,0
2018-11-10T01:48:25.224Z,0
2018-11-10T01:49:35.181Z,0
2018-11-10T01:50:45.146Z,0
2018-11-10T01:51:54.832Z,0
2018-11-10T01:53:04.530Z,0
2018-11-10T01:54:14.205Z,0
2018-11-10T01:55:23.648Z,0
2018-11-10T01:56:33.599Z,0
2018-11-10T01:57:43.294Z,0
2018-11-10T01:58:52.962Z,0
2018-11-10T02:00:02.919Z,0
2018-11-10T02:01:12.885Z,0
2018-11-10T02:02:22.067Z,0
2018-11-10T02:03:32.006Z,0
2018-11-10T02:04:41.939Z,0
2018-11-10T02:05:51.633Z,0
2018-11-10T02:07:01.569Z,0
2018-11-10T02:08:10.989Z,0
2018-11-10T02:09:20.697Z,0
2018-11-10T02:10:30.396Z,0
2018-11-10T02:11:40.068Z,0
2018-11-10T02:12:50.013Z,0
2018-11-10T02:13:59.434Z,0
2018-11-10T02:15:09.127Z,0
2018-11-10T02:16:18.307Z,0
2018-11-10T02:17:27.728Z,0
2018-11-10T02:18:37.727Z,0
2018-11-10T02:19:47.160Z,0
2018-11-10T02:20:56.586Z,0
2018-11-10T02:22:06.030Z,0
2018-11-10T02:23:15.466Z,0
2018-11-10T02:24:24.914Z,0
2018-11-10T02:25:34.858Z,0
2018-11-10T02:26:44.557Z,0
2018-11-10T02:27:53.984Z,0
2018-11-10T02:29:03.934Z,0
2018-11-10T02:30:13.639Z,0
2018-11-10T02:31:22.818Z,0
2018-11-10T02:32:32.499Z,0
2018-11-10T02:33:41.938Z,0
2018-11-10T02:34:51.884Z,0
2018-11-10T02:36:01.579Z,0
2018-11-10T02:37:11.278Z,0
2018-11-10T02:38:20.967Z,0
2018-11-10T02:39:30.981Z,0
2018-11-10T02:40:40.672Z,0
2018-11-10T02:41:50.132Z,0
2018-11-10T02:43:00.080Z,0
2018-11-10T02:44:09.515Z,0
2018-11-10T02:45:18.696Z,0
2018-11-10T02:46:27.861Z,0
2018-11-10T02:47:37.549Z,0
2018-11-10T02:48:46.991Z,0
2018-11-10T02:49:56.944Z,0
2018-11-10T02:51:06.374Z,0
2018-11-10T02:52:15.543Z,0
2018-11-10T02:53:25.503Z,0
2018-11-10T02:54:35.445Z,0
2018-11-10T02:55:45.386Z,0
2018-11-10T02:56:55.343Z,0
2018-11-10T02:58:04.764Z,0
2018-11-10T02:59:14.204Z,0
2018-11-10T03:00:23.875Z,0
2018-11-10T03:01:33.308Z,0
2018-11-10T03:02:43.243Z,0
2018-11-10T03:03:53.190Z,0
2018-11-10T03:05:03.128Z,0
2018-11-10T03:06:12.815Z,0
2018-11-10T03:07:22.765Z,0
2018-11-10T03:08:32.453Z,0
2018-11-10T03:09:42.143Z,0
2018-11-10T03:10:52.443Z,0
2018-11-10T03:12:02.677Z,0
2018-11-10T03:13:12.623Z,0
2018-11-10T03:14:22.076Z,0
2018-11-10T03:15:31.756Z,0
2018-11-10T03:16:41.656Z,0
2018-11-10T03:17:50.819Z,0
2018-11-10T03:19:00.506Z,0
2018-11-10T03:20:09.955Z,0
2018-11-10T03:21:19.635Z,0
2018-11-10T03:22:29.577Z,0
2018-11-10T03:23:39.251Z,0
2018-11-10T03:24:49.192Z,0
2018-11-10T03:25:59.140Z,0
2018-11-10T03:27:09.079Z,0
2018-11-10T03:28:18.762Z,0
2018-11-10T03:29:28.193Z,0
2018-11-10T03:30:37.870Z,0
2018-11-10T03:31:47.565Z,0
2018-11-10T03:32:56.745Z,0
2018-11-10T03:34:06.440Z,0
2018-11-10T03:35:15.615Z,0
2018-11-10T03:36:25.558Z,0
2018-11-10T03:37:35.038Z,0
2018-11-10T03:38:44.436Z,0
2018-11-10T03:39:54.390Z,0
2018-11-10T03:41:04.077Z,0
2018-11-10T03:42:13.767Z,0
2018-11-10T03:43:23.191Z,0
2018-11-10T03:44:32.608Z,0
2018-11-10T03:45:42.318Z,0
2018-11-10T03:46:52.251Z,0
2018-11-10T03:48:01.672Z,0
2018-11-10T03:49:11.366Z,0
2018-11-10T03:50:21.078Z,0
2018-11-10T03:51:30.764Z,0
2018-11-10T03:52:40.451Z,0
2018-11-10T03:53:50.136Z,0
2018-11-10T03:55:00.093Z,0
2018-11-10T03:56:09.519Z,0
2018-11-10T03:57:18.949Z,0
2018-11-10T03:58:28.631Z,0
2018-11-10T03:59:38.057Z,0
2018-11-10T04:00:47.490Z,0
2018-11-10T04:01:57.435Z,0
2018-11-10T04:03:07.133Z,0
2018-11-10T04:04:17.079Z,0
2018-11-10T04:05:26.785Z,0
2018-11-10T04:06:36.736Z,0
2018-11-10T04:07:46.156Z,0
2018-11-10T04:08:56.117Z,0
2018-11-10T04:10:05.810Z,0
2018-11-10T04:11:15.503Z,0
2018-11-10T04:12:25.451Z,0
2018-11-10T04:13:35.438Z,0
2018-11-10T04:14:45.132Z,0
2018-11-10T04:15:54.818Z,0
2018-11-10T04:17:04.506Z,0
2018-11-10T04:18:13.931Z,0
2018-11-10T04:19:23.632Z,0
2018-11-10T04:20:33.336Z,0
2018-11-10T04:21:43.281Z,0
2018-11-10T04:22:53.221Z,0
2018-11-10T04:24:03.169Z,0
2018-11-10T04:25:12.862Z,0
2018-11-10T04:26:22.800Z,0
2018-11-10T04:27:32.507Z,0
2018-11-10T04:28:42.203Z,0
2018-11-10T04:29:51.895Z,0
2018-11-10T04:31:01.835Z,0
2018-11-10T04:32:11.798Z,0
2018-11-10T04:33:21.742Z,0
2018-11-10T04:34:31.428Z,0
2018-11-10T04:35:40.873Z,0
2018-11-10T04:36:50.847Z,0
2018-11-10T04:38:00.270Z,0
2018-11-10T04:39:09.952Z,0
2018-11-10T04:40:19.884Z,0
2018-11-10T04:41:29.580Z,0
2018-11-10T04:42:39.272Z,0
2018-11-10T04:43:49.296Z,0
2018-11-10T04:44:59.259Z,0
2018-11-10T04:46:08.171Z,0
2018-11-10T04:47:18.121Z,0
2018-11-10T04:48:27.842Z,0
2018-11-10T04:49:37.901Z,0
2018-11-10T04:50:47.396Z,0
2018-11-10T04:51:56.565Z,0
2018-11-10T04:53:06.252Z,0
2018-11-10T04:54:15.945Z,0
2018-11-10T04:55:25.629Z,0
2018-11-10T04:56:35.320Z,0
2018-11-10T04:57:44.735Z,0
2018-11-10T04:58:54.155Z,0
2018-11-10T05:00:03.843Z,0
2018-11-10T05:01:13.921Z,0
2018-11-10T05:02:23.024Z,0
2018-11-10T05:03:32.456Z,0
2018-11-10T05:04:41.877Z,0
2018-11-10T05:05:51.305Z,0
2018-11-10T05:07:01.004Z,0
2018-11-10T05:08:10.959Z,0
2018-11-10T05:09:20.909Z,0
2018-11-10T05:10:30.852Z,0
2018-11-10T05:11:40.793Z,0
2018-11-10T05:12:50.488Z,0
2018-11-10T05:14:00.169Z,0
2018-11-10T05:15:10.164Z,0
2018-11-10T05:16:20.123Z,0
2018-11-10T05:17:29.804Z,0
2018-11-10T05:18:39.743Z,0
2018-11-10T05:19:49.677Z,0
2018-11-10T05:20:59.618Z,0
2018-11-10T05:22:09.304Z,0
2018-11-10T05:23:19.231Z,0
2018-11-10T05:24:29.175Z,0
2018-11-10T05:25:39.131Z,0
2018-11-10T05:26:48.554Z,0
2018-11-10T05:27:58.243Z,0
2018-11-10T05:29:08.192Z,0
2018-11-10T05:30:17.624Z,0
2018-11-10T05:31:27.487Z,0
2018-11-10T05:32:37.432Z,0
2018-11-10T05:33:46.353Z,0
2018-11-10T05:34:56.301Z,0
2018-11-10T05:36:05.990Z,0
2018-11-10T05:37:15.677Z,0
2018-11-10T05:38:25.367Z,0
2018-11-10T05:39:35.062Z,0
2018-11-10T05:40:44.736Z,0
2018-11-10T05:41:54.682Z,0
2018-11-10T05:43:04.138Z,0
2018-11-10T05:44:14.084Z,4
2018-11-10T05:45:23.513Z,4
2018-11-10T05:46:33.201Z,4
2018-11-10T05:47:43.148Z,4
2018-11-10T05:48:53.085Z,8
2018-11-10T05:50:03.032Z,4
2018-11-10T05:51:12.710Z,8
2018-11-10T05:52:22.400Z,8
2018-11-10T05:53:32.089Z,8
2018-11-10T05:54:42.041Z,12
2018-11-10T05:55:51.729Z,20
2018-11-10T05:57:01.766Z,24
2018-11-10T05:58:11.858Z,28
2018-11-10T05:59:21.287Z,32
2018-11-10T06:00:30.718Z,36
2018-11-10T06:01:40.397Z,44
2018-11-10T06:02:49.563Z,52
2018-11-10T06:03:59.509Z,60
2018-11-10T06:05:09.205Z,76
2018-11-10T06:06:18.889Z,92
2018-11-10T06:07:28.833Z,104
2018-11-10T06:08:38.532Z,120
2018-11-10T06:09:48.870Z,148
2018-11-10T06:10:58.822Z,180
2018-11-10T06:12:08.793Z,200
2018-11-10T06:13:18.485Z,224
2018-11-10T06:14:28.184Z,256
2018-11-10T06:15:37.623Z,284
2018-11-10T06:16:47.567Z,320
2018-11-10T06:17:57.519Z,340
2018-11-10T06:19:07.461Z,356
2018-11-10T06:20:17.169Z,408
2018-11-10T06:21:26.827Z,424
2018-11-10T06:22:36.000Z,456
2018-11-10T06:23:45.712Z,472
2018-11-10T06:24:55.655Z,484
2018-11-10T06:26:05.247Z,540
2018-11-10T06:27:15.348Z,600
2018-11-10T06:28:25.294Z,672
2018-11-10T06:29:34.974Z,716
2018-11-10T06:30:44.661Z,760
2018-11-10T06:31:54.338Z,832
2018-11-10T06:33:04.283Z,868
2018-11-10T06:34:13.985Z,928
2018-11-10T06:35:23.958Z,1028
2018-11-10T06:36:33.653Z,1092
2018-11-10T06:37:43.338Z,1136
2018-11-10T06:38:53.275Z,1168
2018-11-10T06:40:02.949Z,1308
2018-11-10T06:41:12.475Z,1372
2018-11-10T06:42:22.216Z,1416
2018-11-10T06:43:31.905Z,1576
2018-11-10T06:44:41.596Z,1532
2018-11-10T06:45:51.550Z,1620
2018-11-10T06:47:01.423Z,1704
2018-11-10T06:48:11.516Z,1756
2018-11-10T06:49:21.461Z,1800
2018-11-10T06:50:31.134Z,1840
2018-11-10T06:51:40.562Z,1780
2018-11-10T06:52:50.428Z,1856
2018-11-10T06:54:00.301Z,1924
2018-11-10T06:55:10.014Z,1960
2018-11-10T06:56:19.707Z,1940
2018-11-10T06:57:29.413Z,2136
2018-11-10T06:58:39.107Z,2076
2018-11-10T06:59:48.538Z,2184
2018-11-10T07:00:58.471Z,2324
2018-11-10T07:02:08.155Z,2444
2018-11-10T07:03:18.396Z,2472
2018-11-10T07:04:28.237Z,2676
2018-11-10T07:05:38.194Z,2488
2018-11-10T07:06:47.619Z,2480
2018-11-10T07:07:57.304Z,2564
2018-11-10T07:09:07.294Z,2708
2018-11-10T07:10:16.942Z,2564
2018-11-10T07:11:26.660Z,2880
2018-11-10T07:12:36.613Z,3188
2018-11-10T07:13:46.564Z,3032
2018-11-10T07:14:56.485Z,3132
2018-11-10T07:16:06.433Z,3360
2018-11-10T07:17:15.616Z,3504
2018-11-10T07:18:25.347Z,3216
2018-11-10T07:19:35.304Z,3880
2018-11-10T07:20:44.741Z,3828
2018-11-10T07:21:54.169Z,3564
2018-11-10T07:23:04.119Z,3560
2018-11-10T07:24:13.815Z,4040
2018-11-10T07:25:23.575Z,3564
2018-11-10T07:26:33.545Z,3932
2018-11-10T07:27:43.275Z,3768
2018-11-10T07:28:52.700Z,3812
2018-11-10T07:30:02.639Z,4232
2018-11-10T07:31:12.327Z,4036
2018-11-10T07:32:22.020Z,4752
2018-11-10T07:33:31.706Z,4456
2018-11-10T07:34:41.679Z,3788
2018-11-10T07:35:51.359Z,4340
2018-11-10T07:37:01.035Z,3756
2018-11-10T07:38:10.997Z,3952
2018-11-10T07:39:20.933Z,4140
2018-11-10T07:40:30.885Z,4400
2018-11-10T07:41:40.565Z,4572
2018-11-10T07:42:50.087Z,5132
2018-11-10T07:43:59.207Z,5604
2018-11-10T07:45:08.894Z,4984
2018-11-10T07:46:18.886Z,4904
2018-11-10T07:47:28.608Z,5800
2018-11-10T07:48:38.042Z,5112
2018-11-10T07:49:47.982Z,6396
2018-11-10T07:50:57.681Z,6304
2018-11-10T07:52:07.652Z,5984
2018-11-10T07:53:17.339Z,5972
2018-11-10T07:54:27.151Z,6376
2018-11-10T07:55:36.925Z,5784
2018-11-10T07:56:46.627Z,7040
2018-11-10T07:57:56.561Z,6584
2018-11-10T07:59:06.520Z,6584
2018-11-10T08:00:16.196Z,9144
2018-11-10T08:01:26.148Z,6624
2018-11-10T08:02:36.108Z,7824
2018-11-10T08:03:45.535Z,7604
2018-11-10T08:04:55.264Z,6828
2018-11-10T08:06:04.954Z,7760
2018-11-10T08:07:14.385Z,7844
2018-11-10T08:08:24.326Z,6168
2018-11-10T08:09:33.756Z,7692
2018-11-10T08:10:43.190Z,6040
2018-11-10T08:11:53.075Z,8728
2018-11-10T08:13:03.141Z,8600
2018-11-10T08:14:12.829Z,7044
2018-11-10T08:15:22.288Z,8428
2018-11-10T08:16:31.970Z,7612
2018-11-10T08:17:41.416Z,6284
2018-11-10T08:18:51.478Z,7844
2018-11-10T08:20:01.434Z,6992
2018-11-10T08:21:10.875Z,6916
2018-11-10T08:22:20.841Z,7456
2018-11-10T08:23:30.782Z,7568
2018-11-10T08:24:40.216Z,8248
2018-11-10T08:25:49.653Z,9200
2018-11-10T08:26:59.362Z,8040
2018-11-10T08:28:09.316Z,8568
2018-11-10T08:29:18.767Z,9820
2018-11-10T08:30:28.714Z,9828
2018-11-10T08:31:38.676Z,10228
2018-11-10T08:32:48.641Z,10820
2018-11-10T08:33:58.588Z,11616
2018-11-10T08:35:08.274Z,12012
2018-11-10T08:36:17.430Z,11632
2018-11-10T08:37:27.108Z,12596
2018-11-10T08:38:36.796Z,12968
2018-11-10T08:39:46.507Z,12360
2018-11-10T08:40:56.478Z,11936
2018-11-10T08:42:06.178Z,11072
2018-11-10T08:43:15.372Z,9372
2018-11-10T08:44:25.316Z,12664
2018-11-10T08:45:35.277Z,10224
2018-11-10T08:46:45.217Z,11848
2018-11-10T08:47:55.210Z,13332
2018-11-10T08:49:05.010Z,12880
2018-11-10T08:50:15.018Z,13376
2018-11-10T08:51:24.187Z,11892
2018-11-10T08:52:33.356Z,14304
2018-11-10T08:53:43.312Z,11712
2018-11-10T08:54:53.268Z,14404
2018-11-10T08:56:02.714Z,15336
2018-11-10T08:57:11.885Z,15700
2018-11-10T08:58:21.566Z,13656
2018-11-10T08:59:31.511Z,13896
2018-11-10T09:00:40.942Z,12616
2018-11-10T09:01:50.904Z,16556
2018-11-10T09:03:00.599Z,14752
2018-11-10T09:04:10.028Z,15280
2018-11-10T09:05:19.967Z,16280
2018-11-10T09:06:29.655Z,14976
2018-11-10T09:07:39.339Z,14792
2018-11-10T09:08:49.024Z,13532
2018-11-10T09:09:59.376Z,15032
2018-11-10T09:11:09.559Z,16576
2018-11-10T09:12:19.523Z,15512
2018-11-10T09:13:28.963Z,16324
2018-11-10T09:14:38.643Z,14260
2018-11-10T09:15:48.081Z,12888
2018-11-10T09:16:57.257Z,24384
2018-11-10T09:18:06.942Z,15632
2018-11-10T09:19:16.633Z,17036
2018-11-10T09:20:26.566Z,19552
2018-11-10T09:21:36.344Z,13392
2018-11-10T09:22:45.942Z,16076
2018-11-10T09:23:55.884Z,18240
2018-11-10T09:25:05.562Z,16756
2018-11-10T09:26:15.250Z,19136
2018-11-10T09:27:24.703Z,19040
2018-11-10T09:28:34.417Z,14032
2018-11-10T09:29:44.356Z,16232
2018-11-10T09:30:53.716Z,15684
2018-11-10T09:32:03.578Z,15064
2018-11-10T09:33:13.267Z,18208
2018-11-10T09:34:22.950Z,16764
2018-11-10T09:35:32.647Z,19936
2018-11-10T09:36:42.620Z,20160
2018-11-10T09:37:52.557Z,25984
2018-11-10T09:39:02.246Z,26624
2018-11-10T09:40:11.937Z,18272
2018-11-10T09:41:21.365Z,21184
2018-11-10T09:42:32.168Z,25728
2018-11-10T09:43:42.418Z,18176
2018-11-10T09:44:52.122Z,22400
2018-11-10T09:46:02.070Z,37440
2018-11-10T09:47:11.757Z,20032
2018-11-10T09:48:20.951Z,21216
2018-11-10T09:49:30.920Z,27424
2018-11-10T09:50:40.737Z,21472
2018-11-10T09:51:50.422Z,38336
2018-11-10T09:53:00.117Z,27168
2018-11-10T09:54:09.842Z,25344
2018-11-10T09:55:19.530Z,41088
2018-11-10T09:56:29.486Z,22624
2018-11-10T09:57:39.438Z,22624
2018-11-10T09:58:49.131Z,27072
2018-11-10T09:59:58.554Z,23968
2018-11-10T10:01:08.471Z,28832
2018-11-10T10:02:21.514Z,21504
2018-11-10T10:03:31.472Z,22944
2018-11-10T10:04:40.903Z,24000
2018-11-10T10:05:50.599Z,24384
2018-11-10T10:07:00.062Z,25664
2018-11-10T10:08:10.013Z,19328
2018-11-10T10:09:19.456Z,41472
2018-11-10T10:10:28.890Z,23136
2018-11-10T10:11:38.607Z,24736
2018-11-10T10:12:48.569Z,23488
2018-11-10T10:13:58.007Z,19520
2018-11-10T10:15:07.704Z,27328
2018-11-10T10:16:17.767Z,20960
2018-11-10T10:17:27.254Z,26208
2018-11-10T10:18:36.955Z,29792
2018-11-10T10:19:46.662Z,45024
2018-11-10T10:20:56.102Z,38624
2018-11-10T10:22:06.192Z,38880
2018-11-10T10:23:15.905Z,32576
2018-11-10T10:24:25.617Z,36800
2018-11-10T10:25:35.295Z,31744
2018-11-10T10:26:44.998Z,30496
2018-11-10T10:27:54.955Z,21312
2018-11-10T10:29:05.306Z,26112
2018-11-10T10:30:15.648Z,17920
2018-11-10T10:31:25.342Z,16020
2018-11-10T10:32:35.038Z,26752
2018-11-10T10:33:44.992Z,24352
2018-11-10T10:34:55.312Z,35040
2018-11-10T10:36:05.062Z,29824
2018-11-10T10:37:14.761Z,39200
2018-11-10T10:38:24.462Z,46016
2018-11-10T10:39:34.369Z,34240
2018-11-10T10:40:44.346Z,51808
2018-11-10T10:41:54.299Z,39360
2018-11-10T10:43:04.620Z,53440
2018-11-10T10:44:14.690Z,51872
2018-11-10T10:45:24.659Z,61792
2018-11-10T10:46:34.360Z,63168
2018-11-10T10:47:44.316Z,65088
2018-11-10T10:48:54.717Z,47104
2018-11-10T10:50:04.451Z,60864
2018-11-10T10:51:13.875Z,47936
2018-11-10T10:52:23.314Z,30496
2018-11-10T10:53:33.034Z,63264
2018-11-10T10:54:42.972Z,61120
2018-11-10T10:55:52.917Z,62240
2018-11-10T10:57:03.444Z,50912
2018-11-10T10:58:13.107Z,63808
2018-11-10T10:59:22.806Z,65888
2018-11-10T11:00:32.775Z,64576
2018-11-10T11:01:42.728Z,64448
2018-11-10T11:02:53.013Z,37312
2018-11-10T11:04:03.204Z,46272
2018-11-10T11:05:12.656Z,36160
2018-11-10T11:06:22.104Z,40064
2018-11-10T11:07:31.823Z,40640
2018-11-10T11:08:41.542Z,74464
2018-11-10T11:09:51.434Z,60288
2018-11-10T11:11:01.404Z,54048
2018-11-10T11:12:11.345Z,71904
2018-11-10T11:13:21.299Z,66080
2018-11-10T11:14:30.773Z,74848
2018-11-10T11:15:40.978Z,69120
2018-11-10T11:16:51.098Z,69600
2018-11-10T11:18:01.074Z,60576
2018-11-10T11:19:11.024Z,38112
2018-11-10T11:20:20.473Z,36032
2018-11-10T11:21:30.422Z,44192
2018-11-10T11:22:40.114Z,32544
2018-11-10T11:23:49.793Z,42208
2018-11-10T11:24:59.750Z,35136
2018-11-10T11:26:09.453Z,34912
2018-11-10T11:27:19.148Z,34624
2018-11-10T11:28:28.594Z,35072
2018-11-10T11:29:38.756Z,50304
2018-11-10T11:30:48.852Z,52864
2018-11-10T11:31:58.804Z,53952
2018-11-10T11:33:08.773Z,57696
2018-11-10T11:34:18.218Z,78848
2018-11-10T11:35:28.379Z,60864
2018-11-10T11:36:38.362Z,72768
2018-11-10T11:37:48.052Z,74528
2018-11-10T11:38:57.773Z,74464
2018-11-10T11:40:07.473Z,66496
2018-11-10T11:41:17.859Z,71584
2018-11-10T11:42:27.872Z,66400
2018-11-10T11:43:37.616Z,75968
2018-11-10T11:44:47.307Z,72928
2018-11-10T11:45:57.274Z,70208
2018-11-10T11:47:07.236Z,77440
2018-11-10T11:48:16.925Z,69824
2018-11-10T11:49:26.868Z,39392
2018-11-10T11:50:36.564Z,71328
2018-11-10T11:51:46.532Z,65440
2018-11-10T11:52:56.497Z,75904
2018-11-10T11:54:06.466Z,73888
2018-11-10T11:55:16.177Z,74624
2018-11-10T11:56:25.871Z,80032
2018-11-10T11:57:35.894Z,77536
2018-11-10T11:58:45.000Z,77088
2018-11-10T11:59:54.687Z,72192
2018-11-10T12:01:04.378Z,71136
2018-11-10T12:02:14.668Z,73856
2018-11-10T12:03:23.817Z,65728
2018-11-10T12:04:34.289Z,37888
2018-11-10T12:05:44.448Z,51168
2018-11-10T12:06:54.426Z,45728
2018-11-10T12:08:03.870Z,51936
2018-11-10T12:09:13.556Z,59136
2018-11-10T12:10:22.739Z,56480
2018-11-10T12:11:32.432Z,63264
2018-11-10T12:12:42.394Z,70848
2018-11-10T12:13:51.848Z,77216
2018-11-10T12:15:01.554Z,72576
2018-11-10T12:16:11.279Z,63008
2018-11-10T12:17:21.238Z,59552
2018-11-10T12:18:30.932Z,61920
2018-11-10T12:19:40.611Z,53536
2018-11-10T12:20:50.212Z,61248
2018-11-10T12:22:00.061Z,66624
2018-11-10T12:23:10.191Z,66048
2018-11-10T12:24:19.897Z,59904
2018-11-10T12:25:29.843Z,69696
2018-11-10T12:26:39.343Z,69920
2018-11-10T12:27:49.430Z,66752
2018-11-10T12:28:59.135Z,78496
2018-11-10T12:30:08.827Z,74848
2018-11-10T12:31:18.583Z,71232
2018-11-10T12:32:28.329Z,74368
2018-11-10T12:33:37.785Z,71200
2018-11-10T12:34:47.502Z,64480
2018-11-10T12:35:57.191Z,63296
2018-11-10T12:37:07.166Z,61984
2018-11-10T12:38:16.858Z,53728
2018-11-10T12:39:26.540Z,60448
2018-11-10T12:40:36.519Z,50336
2018-11-10T12:41:46.224Z,58240
2018-11-10T12:42:56.178Z,57632
2018-11-10T12:44:05.863Z,51264
2018-11-10T12:45:15.839Z,47776
2018-11-10T12:46:25.906Z,49600
2018-11-10T12:47:36.060Z,52768
2018-11-10T12:48:45.432Z,50976
2018-11-10T12:49:55.387Z,52032
2018-11-10T12:51:05.125Z,46592
2018-11-10T12:52:14.452Z,40544
2018-11-10T12:53:24.508Z,49216
2018-11-10T12:54:34.216Z,40992
2018-11-10T12:55:43.926Z,41984
2018-11-10T12:56:53.362Z,55328
2018-11-10T12:58:03.177Z,45728
2018-11-10T12:59:13.195Z,49120
2018-11-10T13:00:23.209Z,51360
2018-11-10T13:01:33.242Z,55488
2018-11-10T13:02:43.192Z,53056
2018-11-10T13:03:52.959Z,52224
2018-11-10T13:05:02.404Z,49312
2018-11-10T13:06:12.376Z,51392
2018-11-10T13:07:22.154Z,51040
2018-11-10T13:08:31.854Z,49120
2018-11-10T13:09:41.806Z,51904
2018-11-10T13:10:52.251Z,51744
2018-11-10T13:12:02.824Z,49312
2018-11-10T13:13:12.374Z,49280
2018-11-10T13:14:21.562Z,50048
2018-11-10T13:15:31.122Z,49632
2018-11-10T13:16:41.550Z,40512
2018-11-10T13:17:51.119Z,34336
2018-11-10T13:19:01.084Z,29920
2018-11-10T13:20:10.518Z,30848
2018-11-10T13:21:20.476Z,34272
2018-11-10T13:22:30.424Z,37216
2018-11-10T13:23:39.871Z,40800
2018-11-10T13:24:49.848Z,40192
2018-11-10T13:25:59.546Z,39648
2018-11-10T13:27:09.492Z,39520
2018-11-10T13:28:18.668Z,37024
2018-11-10T13:29:28.361Z,31360
2018-11-10T13:30:38.078Z,27520
2018-11-10T13:31:48.862Z,27072
2018-11-10T13:32:58.584Z,27968
2018-11-10T13:34:08.284Z,29824
2018-11-10T13:35:17.740Z,32960
2018-11-10T13:36:27.697Z,30368
2018-11-10T13:37:37.397Z,29472
2018-11-10T13:38:47.042Z,27296
2018-11-10T13:39:56.875Z,25920
2018-11-10T13:41:05.802Z,25984
2018-11-10T13:42:15.033Z,23936
2018-11-10T13:43:24.880Z,22240
2018-11-10T13:44:34.982Z,21504
2018-11-10T13:45:45.033Z,20288
2018-11-10T13:46:54.465Z,19552
2018-11-10T13:48:04.424Z,20128
2018-11-10T13:49:14.375Z,20064
2018-11-10T13:50:24.195Z,17920
2018-11-10T13:51:34.237Z,17632
2018-11-10T13:52:45.613Z,17248
2018-11-10T13:53:56.616Z,16064
2018-11-10T13:55:06.318Z,15420
2018-11-10T13:56:16.275Z,16064
2018-11-10T13:57:25.972Z,16160
2018-11-10T13:58:35.677Z,16544
2018-11-10T13:59:45.103Z,16032
2018-11-10T14:00:54.788Z,14656
2018-11-10T14:02:04.244Z,13524
2018-11-10T14:03:13.699Z,13076
2018-11-10T14:04:23.137Z,13284
2018-11-10T14:05:32.871Z,13112
2018-11-10T14:06:42.600Z,12644
2018-11-10T14:07:52.310Z,12352
2018-11-10T14:09:02.015Z,11584
2018-11-10T14:10:11.709Z,10816
2018-11-10T14:11:21.158Z,10340
2018-11-10T14:12:31.013Z,9964
2018-11-10T14:13:41.104Z,9636
2018-11-10T14:14:51.086Z,9388
2018-11-10T14:16:01.065Z,9224
2018-11-10T14:17:10.513Z,9072
2018-11-10T14:18:20.533Z,8872
2018-11-10T14:19:30.010Z,8660
2018-11-10T14:20:40.446Z,8444
2018-11-10T14:21:50.193Z,8304
2018-11-10T14:23:00.167Z,8216
2018-11-10T14:24:09.881Z,8080
2018-11-10T14:25:19.835Z,7888
2018-11-10T14:26:29.852Z,7672
2018-11-10T14:27:39.697Z,7444
2018-11-10T14:28:49.647Z,7244
2018-11-10T14:29:59.599Z,7088
2018-11-10T14:31:09.552Z,7012
2018-11-10T14:32:18.993Z,7020
2018-11-10T14:33:28.682Z,7252
2018-11-10T14:34:38.615Z,7520
2018-11-10T14:35:48.057Z,7220
2018-11-10T14:36:57.488Z,6604
2018-11-10T14:38:07.209Z,6268
2018-11-10T14:39:16.904Z,6096
2018-11-10T14:40:26.338Z,6004
2018-11-10T14:41:36.037Z,5752
2018-11-10T14:42:45.752Z,5308
2018-11-10T14:43:55.561Z,4844
2018-11-10T14:45:05.305Z,4460
2018-11-10T14:46:15.251Z,4156
2018-11-10T14:47:24.957Z,3904
2018-11-10T14:48:34.914Z,3668
2018-11-10T14:49:44.600Z,3444
2018-11-10T14:50:54.564Z,3240
2018-11-10T14:52:04.535Z,3048
2018-11-10T14:53:15.369Z,2872
2018-11-10T14:54:25.127Z,2700
2018-11-10T14:55:34.557Z,2540
2018-11-10T14:56:44.246Z,2392
2018-11-10T14:57:53.686Z,2248
2018-11-10T14:59:03.667Z,2108
2018-11-10T15:00:13.097Z,1972
2018-11-10T15:01:22.773Z,1844
2018-11-10T15:02:32.736Z,1720
2018-11-10T15:03:42.442Z,1596
2018-11-10T15:04:52.131Z,1472
2018-11-10T15:06:01.560Z,1360
2018-11-10T15:07:11.259Z,1248
2018-11-10T15:08:21.204Z,1140
2018-11-10T15:09:30.916Z,1040
2018-11-10T15:10:40.617Z,948
2018-11-10T15:11:51.222Z,856
2018-11-10T15:13:01.499Z,776
2018-11-10T15:14:11.447Z,696
2018-11-10T15:15:20.904Z,628
2018-11-10T15:16:30.895Z,564
2018-11-10T15:17:40.787Z,512
2018-11-10T15:18:50.071Z,468
2018-11-10T15:19:59.778Z,428
2018-11-10T15:21:09.740Z,396
2018-11-10T15:22:19.163Z,364
2018-11-10T15:23:28.614Z,336
2018-11-10T15:24:38.580Z,304
2018-11-10T15:25:48.275Z,276
2018-11-10T15:26:58.268Z,252
2018-11-10T15:28:08.229Z,224
2018-11-10T15:29:17.937Z,204
2018-11-10T15:30:27.647Z,180
2018-11-10T15:31:36.825Z,160
2018-11-10T15:32:46.517Z,140
2018-11-10T15:33:56.492Z,124
2018-11-10T15:35:06.445Z,104
2018-11-10T15:36:16.163Z,88
2018-11-10T15:37:25.748Z,76
2018-11-10T15:38:35.237Z,64
2018-11-10T15:39:44.680Z,56
2018-11-10T15:40:54.367Z,48
2018-11-10T15:42:04.056Z,36
2018-11-10T15:43:13.511Z,32
2018-11-10T15:44:23.449Z,28
2018-11-10T15:45:32.878Z,20
2018-11-10T15:46:42.571Z,20
2018-11-10T15:47:52.512Z,16
2018-11-10T15:49:01.950Z,12
2018-11-10T15:50:11.990Z,8
2018-11-10T15:51:21.990Z,8
2018-11-10T15:52:31.692Z,8
2018-11-10T15:53:41.670Z,4
2018-11-10T15:54:51.638Z,4
2018-11-10T15:56:01.329Z,4
2018-11-10T15:57:11.686Z,4